Time;durP1;ratioP1;P1;durP2;ratioP2;P2;SDS_P1;SDS_P2;PMS_P1;PMS_P2;Temp;Humidity;BMP_temperature;BMP_pressure;BME280_temperature;BME280_humidity;BME280_pressure;Samples;Min_cycle;Max_cycle;Signal;HPM_P1;HPM_P2
2021/07/10 00:00:20;;;;;;;4.33;3.10;;;;;;;18.50;100.00;96426.63;4993235;28;20200;-82
2021/07/10 00:02:47;;;;;;;3.47;2.60;;;;;;;18.33;100.00;96399.59;4993237;28;20585;-82
2021/07/10 00:05:16;;;;;;;6.73;3.47;;;;;;;18.35;100.00;96396.72;5005580;28;20219;-81
2021/07/10 00:07:43;;;;;;;8.47;3.33;;;;;;;18.33;100.00;96388.94;5012705;28;20238;-81
2021/07/10 00:10:14;;;;;;;7.67;3.60;;;;;;;18.66;100.00;96417.41;5012317;28;20195;-82
2021/07/10 00:12:42;;;;;;;4.37;3.03;;;;;;;18.62;100.00;96416.16;5012635;28;20306;-81
2021/07/10 00:15:14;;;;;;;3.47;3.00;;;;;;;18.44;100.00;96401.63;5012385;28;20251;-81
2021/07/10 00:17:41;;;;;;;7.53;3.37;;;;;;;18.40;100.00;96388.97;5012253;28;20187;-80
2021/07/10 00:20:11;;;;;;;3.77;3.10;;;;;;;18.29;100.00;96388.53;5012295;28;20290;-81
2021/07/10 00:22:39;;;;;;;6.60;2.97;;;;;;;18.46;100.00;96374.81;5012839;28;20250;-80
2021/07/10 00:25:07;;;;;;;7.87;3.83;;;;;;;18.46;100.00;96383.63;5012667;28;20270;-81
2021/07/10 00:27:35;;;;;;;6.60;3.77;;;;;;;18.49;100.00;96371.75;5012487;28;20764;-81
2021/07/10 00:30:03;;;;;;;3.70;3.40;;;;;;;18.36;100.00;96356.63;5012041;28;20298;-81
2021/07/10 00:32:31;;;;;;;3.73;3.40;;;;;;;18.43;100.00;96351.28;5012570;28;20246;-81
2021/07/10 00:34:59;;;;;;;3.00;2.80;;;;;;;18.37;100.00;96352.91;5012457;28;20253;-81
2021/07/10 00:37:26;;;;;;;4.47;3.53;;;;;;;17.99;100.00;96342.06;5012682;28;20622;-81
2021/07/10 00:39:53;;;;;;;3.90;3.13;;;;;;;17.95;100.00;96316.91;5011840;28;20195;-81
2021/07/10 00:42:21;;;;;;;3.50;3.23;;;;;;;17.90;100.00;96319.34;5012250;28;20222;-81
2021/07/10 00:44:49;;;;;;;3.57;3.27;;;;;;;18.08;100.00;96321.41;5012310;28;20282;-81
2021/07/10 00:47:17;;;;;;;6.50;3.47;;;;;;;18.02;100.00;96333.69;5012249;28;20199;-81
2021/07/10 00:49:45;;;;;;;3.40;3.10;;;;;;;17.91;100.00;96310.34;5011722;28;20203;-81
2021/07/10 00:52:13;;;;;;;4.13;3.47;;;;;;;17.87;100.00;96293.16;5012399;28;20330;-81
2021/07/10 00:54:41;;;;;;;3.60;3.30;;;;;;;18.07;100.00;96312.59;5011963;28;20199;-81
2021/07/10 00:57:09;;;;;;;4.17;3.43;;;;;;;18.22;100.00;96320.38;5012196;28;20199;-82
2021/07/10 00:59:37;;;;;;;3.50;3.20;;;;;;;17.95;100.00;96314.25;5011860;28;20203;-81
2021/07/10 01:02:05;;;;;;;4.43;4.03;;;;;;;18.16;100.00;96299.94;5012187;28;20286;-82
2021/07/10 01:04:33;;;;;;;3.73;3.43;;;;;;;17.96;100.00;96305.25;5011838;28;20245;-81
2021/07/10 01:07:01;;;;;;;5.50;3.43;;;;;;;17.99;100.00;96291.53;5012033;28;20246;-81
2021/07/10 01:09:31;;;;;;;4.00;3.33;;;;;;;18.06;100.00;96293.16;5011602;28;20712;-81
2021/07/10 01:11:58;;;;;;;3.80;3.30;;;;;;;18.23;100.00;96277.63;5011983;28;20310;-81
2021/07/10 01:14:26;;;;;;;5.10;3.40;;;;;;;18.28;100.00;96279.66;5012200;28;20667;-81
2021/07/10 01:16:53;;;;;;;4.77;3.53;;;;;;;18.30;100.00;96280.28;5012055;28;20588;-81
2021/07/10 01:19:26;;;;;;;4.33;3.40;;;;;;;18.47;100.00;96278.00;5011545;28;20199;-81
2021/07/10 01:21:56;;;;;;;9.17;3.33;;;;;;;18.47;100.00;96284.13;5012193;28;20214;-81
2021/07/10 01:24:23;;;;;;;3.90;3.53;;;;;;;18.38;100.00;96273.91;5011690;28;20242;-81
2021/07/10 01:26:51;;;;;;;3.73;3.43;;;;;;;18.24;100.00;96263.28;5004710;28;20591;-82
2021/07/10 01:29:18;;;;;;;3.90;3.60;;;;;;;18.03;100.00;96229.75;4992909;28;20192;-81
2021/07/10 01:31:47;;;;;;;4.50;4.10;;;;;;;18.06;100.00;96224.03;4995971;28;20318;-82
2021/07/10 01:34:14;;;;;;;3.33;3.10;;;;;;;18.11;100.00;96226.06;4996107;28;20291;-81
2021/07/10 01:36:43;;;;;;;3.30;3.00;;;;;;;17.99;100.00;96212.56;4995954;28;20291;-81
2021/07/10 01:39:12;;;;;;;4.07;3.67;;;;;;;17.90;100.00;96202.34;4995699;28;20228;-82
2021/07/10 01:41:44;;;;;;;4.97;3.77;;;;;;;17.80;100.00;96185.00;4995550;28;20200;-81
2021/07/10 01:44:12;;;;;;;5.37;3.97;;;;;;;18.08;100.00;96193.75;4995531;28;20278;-81
2021/07/10 01:46:40;;;;;;;6.93;4.20;;;;;;;18.23;100.00;96213.78;4995709;28;20204;-81
2021/07/10 01:49:07;;;;;;;7.97;3.97;;;;;;;18.09;100.00;96212.16;4995539;28;20204;-81
2021/07/10 01:51:35;;;;;;;4.07;3.67;;;;;;;17.73;100.00;96185.97;4995681;28;20232;-81
2021/07/10 01:54:02;;;;;;;3.57;3.20;;;;;;;17.75;100.00;96166.16;4995776;28;20290;-81
2021/07/10 01:56:31;;;;;;;5.10;3.90;;;;;;;17.94;100.00;96182.31;4995535;28;20253;-81
2021/07/10 01:58:58;;;;;;;5.13;3.73;;;;;;;17.96;100.00;96183.75;4995242;28;20748;-81
2021/07/10 02:01:25;;;;;;;5.50;3.60;;;;;;;17.85;100.00;96159.63;4995200;28;20235;-81
2021/07/10 02:03:53;;;;;;;5.00;3.80;;;;;;;17.49;100.00;96143.06;4995199;28;20291;-81
2021/07/10 02:06:20;;;;;;;4.30;3.90;;;;;;;17.54;100.00;96122.00;4995396;28;20293;-82
2021/07/10 02:08:48;;;;;;;4.53;4.20;;;;;;;17.44;100.00;96112.81;4995476;28;20259;-82
2021/07/10 02:11:15;;;;;;;7.27;4.30;;;;;;;17.47;100.00;96105.25;4994979;28;20277;-81
2021/07/10 02:13:44;;;;;;;9.57;3.80;;;;;;;17.49;100.00;96111.19;4994944;28;20286;-81
2021/07/10 02:16:11;;;;;;;4.77;4.37;;;;;;;17.63;100.00;96119.97;4995107;28;20291;-80
2021/07/10 02:18:39;;;;;;;4.77;4.37;;;;;;;17.59;100.00;96110.75;4994886;28;20200;-80
2021/07/10 02:21:06;;;;;;;6.10;4.20;;;;;;;17.59;100.00;96132.84;4994978;28;20214;-80
2021/07/10 02:23:34;;;;;;;4.20;3.60;;;;;;;17.46;100.00;96129.38;4994983;28;20709;-81
2021/07/10 02:26:01;;;;;;;7.47;4.10;;;;;;;17.64;100.00;96145.50;4994685;28;20685;-81
2021/07/10 02:28:29;;;;;;;4.83;4.43;;;;;;;17.42;100.00;96158.16;4995103;28;20252;-80
2021/07/10 02:30:57;;;;;;;5.50;3.73;;;;;;;17.35;100.00;96126.31;4994846;28;20204;-80
2021/07/10 02:33:25;;;;;;;4.40;4.03;;;;;;;17.22;100.00;96110.38;4995048;28;20271;-80
2021/07/10 02:35:52;;;;;;;4.50;4.20;;;;;;;17.18;100.00;96095.88;4994573;28;20207;-80
2021/07/10 02:38:20;;;;;;;6.73;4.40;;;;;;;17.29;100.00;96081.97;4994691;28;20253;-80
2021/07/10 02:40:47;;;;;;;4.93;4.43;;;;;;;17.13;100.00;96082.38;4994204;28;20242;-80
2021/07/10 02:43:15;;;;;;;8.67;4.93;;;;;;;16.87;100.00;96070.72;4994460;28;20231;-81
2021/07/10 02:45:43;;;;;;;4.63;4.30;;;;;;;17.04;100.00;96059.69;4994348;28;20291;-80
2021/07/10 02:48:12;;;;;;;5.43;4.67;;;;;;;16.95;100.00;96060.94;4994440;28;20247;-80
2021/07/10 02:50:40;;;;;;;5.67;4.70;;;;;;;16.97;100.00;96045.59;4994659;28;20685;-81
2021/07/10 02:53:08;;;;;;;5.40;4.90;;;;;;;17.06;100.00;96047.84;4994561;28;20238;-81
2021/07/10 02:55:36;;;;;;;7.77;5.07;;;;;;;17.14;100.00;96030.88;4994525;28;20246;-80
2021/07/10 02:58:04;;;;;;;5.87;4.77;;;;;;;17.28;100.00;96026.38;4994330;28;20808;-80
2021/07/10 03:00:32;;;;;;;9.63;4.77;;;;;;;17.37;100.00;96065.00;4994428;28;20203;-81
2021/07/10 03:03:00;;;;;;;5.47;4.37;;;;;;;17.46;100.00;96081.56;4994142;28;20258;-81
2021/07/10 03:05:28;;;;;;;5.20;4.80;;;;;;;17.34;100.00;96087.47;4994382;28;20286;-80
2021/07/10 03:07:56;;;;;;;5.17;4.73;;;;;;;17.46;100.00;96086.88;4994138;28;20201;-81
2021/07/10 03:10:27;;;;;;;5.33;4.93;;;;;;;17.47;100.00;96096.47;4994466;28;20263;-81
2021/07/10 03:12:55;;;;;;;10.10;5.10;;;;;;;17.28;100.00;96071.53;4993931;28;20745;-82
2021/07/10 03:15:24;;;;;;;4.90;4.40;;;;;;;17.44;100.00;96071.13;4993882;28;20207;-81
2021/07/10 03:17:51;;;;;;;5.53;4.93;;;;;;;17.44;100.00;96072.97;4993873;28;20298;-81
2021/07/10 03:20:21;;;;;;;5.70;5.20;;;;;;;17.46;100.00;96073.59;4993952;28;20232;-81
2021/07/10 03:22:51;;;;;;;5.23;4.67;;;;;;;17.35;100.00;96069.69;4993982;28;20203;-80
2021/07/10 03:25:18;;;;;;;4.20;3.80;;;;;;;17.52;100.00;96073.53;4993808;28;20740;-81
2021/07/10 03:27:47;;;;;;;5.63;5.00;;;;;;;17.49;100.00;96073.16;4993752;28;20387;-81
2021/07/10 03:30:18;;;;;;;5.40;4.77;;;;;;;17.47;100.00;96049.47;4993685;28;20200;-82
2021/07/10 03:32:46;;;;;;;5.30;4.83;;;;;;;17.29;100.00;96018.22;4993624;28;20243;-81
2021/07/10 03:35:15;;;;;;;5.10;4.60;;;;;;;17.37;100.00;96032.31;4993522;28;20196;-81
2021/07/10 03:37:42;;;;;;;5.87;4.60;;;;;;;17.21;100.00;96030.88;4993630;28;20204;-81
2021/07/10 03:40:14;;;;;;;5.67;4.77;;;;;;;17.24;100.00;96011.88;4993408;28;20211;-81
2021/07/10 03:42:41;;;;;;;5.13;4.63;;;;;;;17.29;100.00;96012.91;4993269;28;20223;-80
2021/07/10 03:45:12;;;;;;;4.43;4.13;;;;;;;17.34;100.00;96007.78;4993412;28;20203;-81
2021/07/10 03:47:40;;;;;;;5.93;5.17;;;;;;;17.24;100.00;95994.09;4993497;28;20246;-81
2021/07/10 03:50:10;;;;;;;5.20;4.80;;;;;;;17.30;100.00;95973.88;4993141;28;20291;-81
2021/07/10 03:52:38;;;;;;;5.13;4.73;;;;;;;17.43;100.00;95986.31;4992624;28;20670;-81
2021/07/10 03:55:07;;;;;;;5.37;4.87;;;;;;;17.55;100.00;95982.78;4993678;28;20633;-81
2021/07/10 03:57:36;;;;;;;4.90;4.50;;;;;;;17.46;100.00;96009.81;4995571;28;20205;-81
2021/07/10 04:00:05;;;;;;;7.97;4.97;;;;;;;17.39;100.00;96009.84;5008674;28;20208;-82
2021/07/10 04:02:33;;;;;;;6.23;4.67;;;;;;;17.57;100.00;95996.69;4999192;28;20247;-83
2021/07/10 04:05:01;;;;;;;13.20;5.33;;;;;;;17.58;100.00;95992.19;4993214;28;20247;-82
2021/07/10 04:07:30;;;;;;;5.27;4.77;;;;;;;17.72;100.00;96024.88;4995526;28;20266;-83
2021/07/10 04:10:00;;;;;;;4.50;4.10;;;;;;;17.58;100.00;96016.91;4992616;28;20635;-82
2021/07/10 04:12:28;;;;;;;4.83;4.53;;;;;;;17.53;100.00;95986.72;5001328;28;20275;-83
2021/07/10 04:15:00;;;;;;;6.17;5.53;;;;;;;17.62;100.00;95982.78;4992919;28;20207;-83
2021/07/10 04:17:28;;;;;;;6.50;6.00;;;;;;;17.79;100.00;96021.19;4993176;28;20196;-82
2021/07/10 04:19:56;;;;;;;7.17;6.37;;;;;;;17.82;100.00;96046.53;4992601;28;20255;-82
2021/07/10 04:22:24;;;;;;;6.90;5.87;;;;;;;17.84;100.00;96060.44;4992991;28;20279;-82
2021/07/10 04:24:51;;;;;;;5.67;5.27;;;;;;;17.99;100.00;96057.53;4992827;28;20236;-82
2021/07/10 04:27:19;;;;;;;6.50;5.97;;;;;;;18.08;100.00;96066.91;4992449;28;20240;-82
2021/07/10 04:29:48;;;;;;;9.97;6.60;;;;;;;18.11;100.00;96071.78;4992800;28;20195;-83
2021/07/10 04:32:17;;;;;;;6.57;6.07;;;;;;;18.18;100.00;96075.25;4992994;28;20207;-82
2021/07/10 04:34:44;;;;;;;6.87;5.20;;;;;;;18.23;100.00;96078.09;4992792;28;20684;-83
2021/07/10 04:37:13;;;;;;;5.53;5.00;;;;;;;18.36;100.00;96085.22;4992918;28;20283;-82
2021/07/10 04:39:40;;;;;;;7.33;4.60;;;;;;;18.38;100.00;96090.31;4992441;28;20200;-82
2021/07/10 04:42:08;;;;;;;7.03;5.03;;;;;;;18.58;100.00;96082.25;4992627;28;20658;-82
2021/07/10 04:44:35;;;;;;;7.97;4.87;;;;;;;18.60;100.00;96088.16;4992391;28;20200;-82
2021/07/10 04:47:03;;;;;;;5.10;4.27;;;;;;;18.66;100.00;96101.41;4992356;28;20206;-82
2021/07/10 04:49:32;;;;;;;4.53;4.23;;;;;;;18.70;100.00;96062.72;4992284;28;20262;-82
2021/07/10 04:52:01;;;;;;;5.40;4.90;;;;;;;18.77;100.00;96046.72;4992916;28;20205;-83
2021/07/10 04:54:28;;;;;;;5.00;4.40;;;;;;;18.91;100.00;96044.78;4992300;28;20224;-82
2021/07/10 04:56:55;;;;;;;4.57;4.17;;;;;;;18.95;100.00;96110.72;4992332;28;20189;-83
2021/07/10 04:59:23;;;;;;;4.43;4.03;;;;;;;19.08;100.00;96115.13;4992451;28;20251;-80
2021/07/10 05:01:50;;;;;;;4.60;4.20;;;;;;;19.16;100.00;96085.56;4992484;28;20231;-80
2021/07/10 05:04:17;;;;;;;9.77;4.43;;;;;;;19.23;100.00;96065.03;4995244;28;20203;-80
2021/07/10 05:06:46;;;;;;;4.37;3.70;;;;;;;19.29;100.00;96073.16;4996332;28;20295;-81
2021/07/10 05:09:13;;;;;;;6.23;5.63;;;;;;;19.29;100.00;96081.16;4996315;28;20254;-81
2021/07/10 05:11:41;;;;;;;4.40;4.10;;;;;;;19.38;100.00;96101.19;4996506;28;20736;-81
2021/07/10 05:14:08;;;;;;;4.30;3.90;;;;;;;19.49;100.00;96119.13;4996025;28;20716;-80
2021/07/10 05:16:36;;;;;;;5.90;4.03;;;;;;;19.64;100.00;96150.81;4996090;28;20203;-81
2021/07/10 05:19:05;;;;;;;5.60;3.53;;;;;;;19.84;100.00;96163.97;4996101;28;20724;-81
2021/07/10 05:21:33;;;;;;;4.53;4.13;;;;;;;19.90;100.00;96166.56;4996636;28;20211;-81
2021/07/10 05:24:01;;;;;;;6.70;4.37;;;;;;;20.08;100.00;96178.31;4995742;28;20204;-80
2021/07/10 05:26:29;;;;;;;5.43;4.47;;;;;;;20.13;100.00;96203.31;4996159;28;20246;-81
2021/07/10 05:28:56;;;;;;;7.00;4.77;;;;;;;20.22;100.00;96224.34;4995874;28;20299;-81
2021/07/10 05:31:23;;;;;;;4.50;4.10;;;;;;;20.33;100.00;96231.63;4995991;28;20291;-80
2021/07/10 05:33:51;;;;;;;6.10;4.53;;;;;;;20.33;100.00;96235.13;4995808;28;20220;-80
2021/07/10 05:36:18;;;;;;;8.00;5.20;;;;;;;20.54;100.00;96241.09;4995945;28;20227;-80
2021/07/10 05:38:45;;;;;;;7.07;6.03;;;;;;;20.73;100.00;96260.63;4995858;28;20210;-81
2021/07/10 05:41:14;;;;;;;5.30;4.80;;;;;;;20.82;100.00;96278.00;4995660;28;20207;-81
2021/07/10 05:43:41;;;;;;;5.77;4.57;;;;;;;21.00;100.00;96294.00;4995325;28;20206;-81
2021/07/10 05:46:09;;;;;;;7.07;5.00;;;;;;;21.19;100.00;96323.38;4995692;28;20263;-81
2021/07/10 05:48:36;;;;;;;5.30;4.80;;;;;;;21.31;100.00;96334.97;4995539;28;20581;-82
2021/07/10 05:51:04;;;;;;;5.00;4.53;;;;;;;21.47;100.00;96345.06;4995647;28;20211;-82
2021/07/10 05:53:31;;;;;;;4.33;3.93;;;;;;;21.56;100.00;96365.09;4995254;28;20228;-82
2021/07/10 05:55:59;;;;;;;8.13;4.57;;;;;;;21.82;100.00;96371.97;4995834;28;20266;-81
2021/07/10 05:58:27;;;;;;;5.57;5.07;;;;;;;21.96;100.00;96380.63;4995681;28;20359;-82
2021/07/10 06:00:55;;;;;;;11.50;5.33;;;;;;;22.06;100.00;96382.75;4995689;28;20741;-82
2021/07/10 06:03:22;;;;;;;6.13;4.70;;;;;;;22.14;100.00;96395.00;4995481;28;20247;-81
2021/07/10 06:05:49;;;;;;;7.37;4.60;;;;;;;22.25;100.00;96387.03;4995417;28;20200;-82
2021/07/10 06:08:17;;;;;;;5.13;4.40;;;;;;;22.36;100.00;96398.81;4995246;28;20291;-82
2021/07/10 06:10:44;;;;;;;9.63;4.30;;;;;;;22.54;100.00;96393.34;4995333;28;20278;-82
2021/07/10 06:13:11;;;;;;;6.17;4.00;;;;;;;22.72;100.00;96407.69;4994663;28;20294;-82
2021/07/10 06:15:40;;;;;;;5.03;4.63;;;;;;;22.96;100.00;96413.91;4994856;28;20278;-82
2021/07/10 06:18:08;;;;;;;6.17;4.27;;;;;;;23.25;100.00;96417.53;4994985;28;20196;-82
2021/07/10 06:20:37;;;;;;;4.30;4.00;;;;;;;23.31;100.00;96424.66;4995150;28;20204;-82
2021/07/10 06:23:05;;;;;;;6.70;3.60;;;;;;;;;;4994755;28;20203;-82
2021/07/10 06:25:33;;;;;;;4.93;4.43;;;;;;;23.85;100.00;96427.91;4995299;28;20204;-82
2021/07/10 06:28:01;;;;;;;5.67;3.67;;;;;;;24.17;100.00;96451.59;4994818;28;20340;-82
2021/07/10 06:30:28;;;;;;;5.13;3.70;;;;;;;24.43;100.00;96444.88;4995119;28;20254;-82
2021/07/10 06:32:57;;;;;;;6.20;4.23;;;;;;;24.20;100.00;96464.56;4994516;28;20259;-82
2021/07/10 06:35:24;;;;;;;4.27;3.87;;;;;;;24.60;100.00;96467.19;4994894;28;20239;-82
2021/07/10 06:37:52;;;;;;;3.73;3.43;;;;;;;24.68;100.00;96484.78;4994878;28;20228;-83
2021/07/10 06:40:20;;;;;;;3.93;3.63;;;;;;;24.76;100.00;96479.00;4994994;28;20286;-82
2021/07/10 06:42:47;;;;;;;3.77;3.37;;;;;;;25.26;100.00;96469.34;4994798;28;20254;-82
2021/07/10 06:45:17;;;;;;;4.40;3.40;;;;;;;25.32;100.00;96488.00;4994534;28;20665;-83
2021/07/10 06:47:45;;;;;;;17.63;4.23;;;;;;;25.52;100.00;96494.72;4994639;28;20299;-82
2021/07/10 06:50:16;;;;;;;4.57;2.53;;;;;;;25.76;100.00;96517.66;4994662;28;20200;-83
2021/07/10 06:52:44;;;;;;;5.00;3.60;;;;;;;25.82;100.00;96527.47;4994397;28;20188;-82
2021/07/10 06:55:13;;;;;;;3.20;2.90;;;;;;;25.30;100.00;96514.34;4994232;28;20315;-82
2021/07/10 06:57:41;;;;;;;9.43;3.13;;;;;;;24.97;100.00;96504.34;4994717;28;20196;-82
2021/07/10 07:00:12;;;;;;;3.47;3.07;;;;;;;24.84;100.00;96499.31;4994334;28;20204;-82
2021/07/10 07:02:39;;;;;;;8.23;3.30;;;;;;;25.01;100.00;96502.00;4994385;28;20188;-82
2021/07/10 07:05:08;;;;;;;3.60;3.10;;;;;;;24.96;100.00;96510.00;4993916;28;20227;-82
2021/07/10 07:07:37;;;;;;;9.27;3.50;;;;;;;25.00;100.00;96513.81;4994284;28;20247;-82
2021/07/10 07:10:06;;;;;;;3.73;3.30;;;;;;;25.45;100.00;96504.84;4994340;28;20310;-82
2021/07/10 07:12:34;;;;;;;4.73;3.30;;;;;;;25.25;100.00;96521.50;4993384;28;20251;-82
2021/07/10 07:15:01;;;;;;;7.03;3.40;;;;;;;25.33;100.00;96524.59;4993905;28;20299;-82
2021/07/10 07:17:28;;;;;;;4.13;3.70;;;;;;;25.66;100.00;96522.91;4994031;28;20258;-82
2021/07/10 07:19:56;;;;;;;3.80;3.50;;;;;;;25.91;100.00;96529.72;4993911;28;20203;-83
2021/07/10 07:22:23;;;;;;;3.90;3.30;;;;;;;26.08;100.00;96534.03;4993875;28;20271;-82
2021/07/10 07:24:52;;;;;;;3.60;2.83;;;;;;;25.70;100.00;96545.59;4993810;28;20279;-82
2021/07/10 07:27:19;;;;;;;5.03;3.53;;;;;;;26.17;100.00;96544.34;4992952;28;20200;-82
2021/07/10 07:29:47;;;;;;;3.55;3.10;;;;;;;25.98;100.00;96557.28;4993789;28;20204;-82
2021/07/10 07:32:15;;;;;;;4.30;3.40;;;;;;;26.13;100.00;96554.81;4993713;28;20204;-82
2021/07/10 07:34:47;;;;;;;3.92;3.50;;;;;;;25.76;100.00;96551.84;4993521;28;20235;-82
2021/07/10 07:37:15;;;;;;;4.80;3.80;;;;;;;25.63;100.00;96555.69;4994302;28;20193;-82
2021/07/10 07:39:44;;;;;;;8.05;3.28;;;;;;;26.18;100.00;96556.75;4993545;28;20295;-82
2021/07/10 07:42:14;;;;;;;7.68;3.35;;;;;;;26.38;100.00;96556.19;4993397;28;20219;-82
2021/07/10 07:44:42;;;;;;;5.78;4.03;;;;;;;26.07;100.00;96562.00;4993234;28;20215;-81
2021/07/10 07:47:11;;;;;;;6.07;3.95;;;;;;;26.12;100.00;96563.97;4993821;28;20569;-82
2021/07/10 07:49:38;;;;;;;4.28;3.42;;;;;;;26.15;100.00;96571.56;4993293;28;20231;-82
2021/07/10 07:52:07;;;;;;;5.05;3.72;;;;;;;26.18;100.00;96568.34;4993233;28;20696;-82
2021/07/10 07:54:36;;;;;;;7.22;4.35;;;;;;;26.19;100.00;96564.59;4993037;28;20310;-82
2021/07/10 07:57:05;;;;;;;5.03;3.95;;;;;;;26.22;100.00;96576.72;5002232;28;20203;-82
2021/07/10 07:59:34;;;;;;;4.22;3.83;;;;;;;26.27;100.00;96571.41;5012876;28;20200;-82
2021/07/10 08:02:01;;;;;;;7.57;4.17;;;;;;;26.14;100.00;96575.28;5017786;28;20223;-82
2021/07/10 08:04:28;;;;;;;2.97;2.78;;;;;;;26.58;100.00;96578.00;5032244;28;20198;-82
2021/07/10 08:06:56;;;;;;;6.30;3.08;;;;;;;26.56;100.00;96577.44;5032675;28;20202;-82
2021/07/10 08:09:24;;;;;;;3.78;3.47;;;;;;;26.64;100.00;96587.78;5032194;28;20205;-83
2021/07/10 08:11:51;;;;;;;6.22;3.90;;;;;;;26.94;100.00;96602.63;5032113;28;20281;-83
2021/07/10 08:14:18;;;;;;;6.78;3.30;;;;;;;26.74;100.00;96595.16;5031691;28;20321;-83
2021/07/10 08:16:47;;;;;;;3.42;3.13;;;;;;;26.54;100.00;96599.25;5032268;28;20203;-82
2021/07/10 08:19:14;;;;;;;3.10;2.85;;;;;;;26.68;100.00;96605.06;5031964;28;20195;-81
2021/07/10 08:21:42;;;;;;;4.72;2.53;;;;;;;26.94;100.00;96603.44;5031960;28;20199;-81
2021/07/10 08:24:09;;;;;;;3.20;3.00;;;;;;;27.17;100.00;96607.75;5031768;28;20202;-81
2021/07/10 08:26:36;;;;;;;9.23;3.17;;;;;;;27.49;100.00;96606.94;5032191;28;20202;-81
2021/07/10 08:29:04;;;;;;;2.92;2.72;;;;;;;27.03;100.00;96607.31;5031553;28;20198;-81
2021/07/10 08:31:34;;;;;;;4.47;3.50;;;;;;;27.46;100.00;96597.47;5031969;28;20195;-82
2021/07/10 08:34:03;;;;;;;4.13;2.90;;;;;;;26.91;100.00;96613.94;5031498;28;20230;-82
2021/07/10 08:36:30;;;;;;;2.17;2.08;;;;;;;27.20;100.00;96604.56;5031907;28;20616;-81
2021/07/10 08:38:58;;;;;;;3.45;3.00;;;;;;;27.31;100.00;96615.44;5031277;28;20226;-81
2021/07/10 08:41:25;;;;;;;3.65;3.38;;;;;;;27.41;100.00;96605.53;5031712;28;20256;-81
2021/07/10 08:43:53;;;;;;;3.60;3.03;;;;;;;27.35;100.00;96617.34;5031616;28;20294;-81
2021/07/10 08:46:21;;;;;;;2.72;2.45;;;;;;;27.16;100.00;96608.84;5032004;28;20194;-82
2021/07/10 08:48:49;;;;;;;4.10;3.15;;;;;;;27.20;100.00;96612.66;5031705;28;20195;-81
2021/07/10 08:51:19;;;;;;;3.15;2.85;;;;;;;27.35;100.00;96614.66;5032102;28;20277;-81
2021/07/10 08:53:46;;;;;;;5.50;3.00;;;;;;;27.68;100.00;96608.19;5031508;28;20586;-82
2021/07/10 08:56:13;;;;;;;3.75;3.08;;;;;;;27.77;100.00;96605.03;5031909;28;20199;-82
2021/07/10 08:58:41;;;;;;;4.85;2.65;;;;;;;27.53;100.00;96610.75;5031434;28;20194;-82
2021/07/10 09:01:10;;;;;;;2.97;2.65;;;;;;;27.78;100.00;96612.03;5031561;28;20289;-81
2021/07/10 09:03:39;;;;;;;6.43;3.00;;;;;;;27.95;100.00;96610.00;5031828;28;20199;-82
2021/07/10 09:06:06;;;;;;;3.00;2.80;;;;;;;27.83;100.00;96609.38;5031603;28;20195;-82
2021/07/10 09:08:35;;;;;;;4.20;2.17;;;;;;;28.08;100.00;96606.81;5031719;28;20237;-82
2021/07/10 09:11:06;;;;;;;2.78;2.50;;;;;;;27.89;100.00;96613.75;5032039;28;20199;-82
2021/07/10 09:13:37;;;;;;;2.95;2.70;;;;;;;28.09;100.00;96615.75;5031380;28;20271;-82
2021/07/10 09:16:08;;;;;;;2.97;2.63;;;;;;;28.20;100.00;96609.34;5031630;28;20206;-82
2021/07/10 09:18:46;;;;;;;6.05;2.50;;;;;;;28.16;100.00;96622.56;5031549;28;20218;-82
2021/07/10 09:21:16;;;;;;;4.03;2.20;;;;;;;28.48;100.00;96613.56;5031363;28;20226;-82
2021/07/10 09:23:46;;;;;;;3.22;2.30;;;;;;;28.19;100.00;96619.31;5031407;28;20289;-82
2021/07/10 09:26:15;;;;;;;4.60;2.45;;;;;;;27.46;100.00;96612.84;5031527;28;20670;-82
2021/07/10 09:28:43;;;;;;;2.60;2.40;;;;;;;28.07;100.00;96612.50;5031145;28;20234;-82
2021/07/10 09:31:16;;;;;;;2.30;2.20;;;;;;;28.33;100.00;96618.84;5031727;28;20260;-82
2021/07/10 09:33:43;;;;;;;2.33;2.10;;;;;;;28.54;100.00;96615.22;5031286;28;20187;-82
2021/07/10 09:36:10;;;;;;;2.40;2.13;;;;;;;29.01;100.00;96611.56;5031492;28;20319;-82
2021/07/10 09:38:38;;;;;;;1.98;1.88;;;;;;;29.01;100.00;96616.97;5031442;28;20206;-83
2021/07/10 09:41:09;;;;;;;2.42;2.08;;;;;;;29.10;100.00;96607.25;5031164;28;20214;-83
2021/07/10 09:43:39;;;;;;;2.80;1.95;;;;;;;29.03;100.00;96608.59;5031359;28;20187;-82
2021/07/10 09:46:08;;;;;;;2.47;2.08;;;;;;;29.34;100.00;96610.25;5031424;28;20191;-82
2021/07/10 09:48:40;;;;;;;1.77;1.67;;;;;;;29.06;100.00;96595.34;5031264;28;20195;-82
2021/07/10 09:51:18;;;;;;;2.00;1.90;;;;;;;29.43;100.00;96605.09;5033884;28;20187;-82
2021/07/10 09:54:05;;;;;;;1.95;1.85;;;;;;;29.57;100.00;96603.47;5034871;28;20199;-82
2021/07/10 09:56:36;;;;;;;3.17;2.30;;;;;;;29.17;100.00;96601.59;5035241;28;20187;-82
2021/07/10 09:59:19;;;;;;;2.25;2.15;;;;;;;29.50;100.00;96594.00;5035104;28;20210;-82
2021/07/10 10:01:48;;;;;;;3.53;2.00;;;;;;;29.58;100.00;96601.56;5034715;28;20230;-82
2021/07/10 10:04:25;;;;;;;3.83;2.10;;;;;;;29.69;100.00;96592.41;5034670;28;20294;-82
2021/07/10 10:06:54;;;;;;;4.10;2.10;;;;;;;29.49;100.00;96595.91;5035050;28;20635;-83
2021/07/10 10:09:23;;;;;;;2.05;1.85;;;;;;;29.46;100.00;96609.97;5034877;28;20206;-82
2021/07/10 10:11:59;;;;;;;2.53;2.08;;;;;;;29.53;100.00;96599.69;5034524;28;20241;-82
2021/07/10 10:14:30;;;;;;;2.00;1.90;;;;;;;29.45;100.00;96596.72;4995268;28;20681;-82
2021/07/10 10:16:58;;;;;;;1.70;1.60;;;;;;;29.47;100.00;96591.84;4995350;28;20189;-83
2021/07/10 10:19:27;;;;;;;2.13;1.90;;;;;;;29.38;100.00;96597.00;4995186;28;20200;-83
2021/07/10 10:21:57;;;;;;;2.42;1.90;;;;;;;29.48;100.00;96593.44;4994999;28;20200;-82
2021/07/10 10:24:25;;;;;;;2.25;1.90;;;;;;;29.72;100.00;96597.28;4995013;28;20236;-83
2021/07/10 10:26:56;;;;;;;3.42;2.10;;;;;;;29.83;100.00;96596.19;4995076;28;20211;-83
2021/07/10 10:29:25;;;;;;;1.83;1.73;;;;;;;29.68;100.00;96592.66;4995175;28;20625;-83
2021/07/10 10:31:53;;;;;;;2.17;1.70;;;;;;;29.72;100.00;96588.31;4994722;28;20262;-82
2021/07/10 10:34:21;;;;;;;1.85;1.75;;;;;;;29.94;100.00;96599.69;4994931;28;20282;-83
2021/07/10 10:36:50;;;;;;;1.88;1.60;;;;;;;30.07;100.00;96599.09;4995335;28;20223;-83
2021/07/10 10:39:20;;;;;;;3.15;1.75;;;;;;;30.08;100.00;96599.91;4994860;28;20227;-82
2021/07/10 10:41:50;;;;;;;3.30;1.58;;;;;;;29.76;89.32;96600.25;4994632;28;20610;-83
2021/07/10 10:44:20;;;;;;;1.33;1.27;;;;;;;29.67;81.05;96591.84;4994609;28;20200;-82
2021/07/10 10:46:52;;;;;;;2.75;1.73;;;;;;;30.11;100.00;96590.44;4995066;28;20204;-82
2021/07/10 10:49:50;;;;;;;3.58;1.40;;;;;;;30.01;100.00;96589.34;4994714;28;20196;-82
2021/07/10 10:52:29;;;;;;;2.47;1.77;;;;;;;30.08;100.00;96589.88;4995029;28;20633;-83
2021/07/10 10:54:59;;;;;;;1.77;1.67;;;;;;;29.80;100.00;96593.22;4994974;28;20208;-83
2021/07/10 10:57:36;;;;;;;2.47;2.03;;;;;;;29.79;100.00;96581.56;4994697;28;20207;-82
2021/07/10 11:00:09;;;;;;;1.58;1.48;;;;;;;29.79;100.00;96570.72;4994890;28;20196;-82
2021/07/10 11:02:56;;;;;;;2.78;1.70;;;;;;;29.95;100.00;96574.19;4994318;28;20188;-82
2021/07/10 11:05:42;;;;;;;1.60;1.50;;;;;;;30.26;100.00;96582.28;4992527;28;20231;-82
2021/07/10 11:08:50;;;;;;;1.75;1.65;;;;;;;30.44;100.00;96570.78;4994213;28;20192;-83
2021/07/10 11:11:27;;;;;;;2.40;1.77;;;;;;;30.21;100.00;96571.47;4994271;28;20207;-82
2021/07/10 11:14:14;;;;;;;2.22;1.70;;;;;;;30.50;100.00;96564.25;5025997;28;20234;-82
2021/07/10 11:17:09;;;;;;;2.72;1.50;;;;;;;30.56;100.00;96565.88;5033676;28;20293;-84
2021/07/10 11:19:54;;;;;;;2.50;1.77;;;;;;;30.35;100.00;96561.63;5015279;28;20199;-84
2021/07/10 11:22:54;;;;;;;2.40;1.60;;;;;;;30.22;100.00;96563.03;5033833;28;20230;-85
2021/07/10 11:26:02;;;;;;;1.92;1.75;;;;;;;30.18;100.00;96551.13;5033227;28;20570;-84
2021/07/10 11:28:54;;;;;;;1.60;1.50;;;;;;;30.30;100.00;96550.78;5033628;28;20252;-85
2021/07/10 11:31:26;;;;;;;1.75;1.65;;;;;;;30.35;100.00;96550.78;5033400;28;20187;-85
2021/07/10 11:34:13;;;;;;;1.70;1.60;;;;;;;30.27;100.00;96545.91;5032190;28;20282;-84
2021/07/10 11:36:58;;;;;;;1.77;1.58;;;;;;;30.24;98.99;96538.34;5032392;28;20307;-85